createdAt,value
2023-12-30T00:02:27.587Z,3.38
2023-12-30T00:04:57.576Z,6.45
2023-12-30T00:07:27.620Z,2.17
2023-12-30T00:10:00.050Z,1.45
2023-12-30T00:12:30.096Z,0.70
2023-12-30T00:14:59.865Z,2.80
2023-12-30T00:17:29.954Z,2.70
2023-12-30T00:19:59.753Z,2.13
2023-12-30T00:22:29.881Z,3.92
2023-12-30T00:25:02.353Z,3.47
2023-12-30T00:27:32.670Z,3.53
2023-12-30T00:30:02.429Z,3.28
2023-12-30T00:32:34.164Z,2.80
2023-12-30T00:35:04.161Z,4.10
2023-12-30T00:37:33.994Z,3.33
2023-12-30T00:40:06.663Z,5.13
2023-12-30T00:42:36.566Z,9.23
2023-12-30T00:45:06.786Z,3.78
2023-12-30T00:47:36.937Z,1.60
2023-12-30T00:50:07.015Z,0.98
2023-12-30T00:52:37.286Z,2.00
2023-12-30T00:55:10.626Z,2.25
2023-12-30T00:57:40.748Z,2.85
2023-12-30T01:00:11.089Z,1.13
2023-12-30T01:02:40.842Z,0.63
2023-12-30T01:05:11.364Z,3.20
2023-12-30T01:07:41.214Z,0.95
2023-12-30T01:10:13.887Z,4.70
2023-12-30T01:12:44.041Z,1.60
2023-12-30T01:15:14.285Z,1.17
2023-12-30T01:17:44.483Z,1.60
2023-12-30T01:20:14.733Z,1.55
2023-12-30T01:22:44.788Z,1.05
2023-12-30T01:25:17.161Z,4.72
2023-12-30T01:27:47.581Z,3.38
2023-12-30T01:30:18.266Z,3.45
2023-12-30T01:32:48.312Z,2.53
2023-12-30T01:35:18.805Z,2.90
2023-12-30T01:37:48.569Z,5.00
2023-12-30T01:40:21.206Z,4.95
2023-12-30T01:42:51.347Z,6.00
2023-12-30T01:45:21.429Z,1.55
2023-12-30T01:47:51.563Z,2.70
2023-12-30T01:50:21.636Z,3.03
2023-12-30T01:52:51.986Z,3.22
2023-12-30T01:55:24.476Z,8.25
2023-12-30T01:57:54.301Z,4.78
2023-12-30T02:00:25.568Z,4.97
2023-12-30T02:02:57.345Z,6.60
2023-12-30T02:05:27.508Z,3.20
2023-12-30T02:07:58.514Z,1.05
2023-12-30T02:10:31.182Z,5.13
2023-12-30T02:13:01.745Z,4.40
2023-12-30T02:15:31.641Z,5.00
2023-12-30T02:18:02.381Z,1.52
2023-12-30T02:20:32.879Z,1.83
2023-12-30T02:23:05.517Z,3.90
2023-12-30T02:25:35.955Z,4.13
2023-12-30T02:28:05.956Z,1.25
2023-12-30T02:30:36.041Z,5.05
2023-12-30T02:33:06.258Z,3.47
2023-12-30T02:35:36.318Z,1.83
2023-12-30T02:38:08.725Z,5.85
2023-12-30T02:40:39.011Z,1.33
2023-12-30T02:43:08.844Z,1.63
2023-12-30T02:45:39.037Z,5.35
2023-12-30T02:48:09.568Z,2.50
2023-12-30T02:50:39.713Z,4.68
2023-12-30T02:53:12.041Z,2.33
2023-12-30T02:55:41.811Z,3.47
2023-12-30T02:58:11.646Z,0.77
2023-12-30T03:00:41.804Z,2.65
2023-12-30T03:03:11.624Z,4.97
2023-12-30T03:05:41.740Z,6.32
2023-12-30T03:08:14.489Z,1.92
2023-12-30T03:10:44.434Z,4.55
2023-12-30T03:13:14.757Z,3.78
2023-12-30T03:15:45.055Z,3.55
2023-12-30T03:18:15.382Z,4.28
2023-12-30T03:20:45.255Z,5.32
2023-12-30T03:23:17.715Z,2.30
2023-12-30T03:25:47.807Z,12.55
2023-12-30T03:28:17.641Z,1.83
2023-12-30T03:30:47.946Z,5.63
2023-12-30T03:33:18.145Z,6.40
2023-12-30T03:35:48.436Z,6.57
2023-12-30T03:38:20.829Z,5.55
2023-12-30T03:40:51.184Z,7.70
2023-12-30T03:43:21.021Z,6.05
2023-12-30T03:45:51.158Z,3.65
2023-12-30T03:48:21.546Z,7.60
2023-12-30T03:50:51.698Z,1.10
2023-12-30T03:53:24.112Z,1.95
2023-12-30T03:55:54.133Z,5.25
2023-12-30T03:58:24.259Z,1.52
2023-12-30T04:00:54.387Z,2.53
2023-12-30T04:03:24.318Z,2.05
2023-12-30T04:05:54.292Z,6.32
2023-12-30T04:08:27.037Z,3.45
2023-12-30T04:10:57.171Z,3.25
2023-12-30T04:13:26.976Z,0.75
2023-12-30T04:15:56.936Z,1.60
2023-12-30T04:18:27.042Z,1.77
2023-12-30T04:20:56.857Z,0.98
2023-12-30T04:23:29.504Z,2.15
2023-12-30T04:25:59.511Z,2.38
2023-12-30T04:28:29.430Z,1.95
2023-12-30T04:30:59.490Z,1.98
2023-12-30T04:33:29.722Z,2.35
2023-12-30T04:35:59.559Z,3.60
2023-12-30T04:38:32.974Z,3.28
2023-12-30T04:41:02.770Z,2.78
2023-12-30T04:43:32.580Z,2.70
2023-12-30T04:46:02.675Z,1.15
2023-12-30T04:48:32.485Z,3.40
2023-12-30T04:51:02.605Z,1.73
2023-12-30T04:53:34.960Z,0.70
2023-12-30T04:56:05.997Z,2.83
2023-12-30T04:58:35.802Z,1.58
2023-12-30T05:01:05.916Z,1.27
2023-12-30T05:03:35.753Z,1.20
2023-12-30T05:06:06.080Z,3.10
2023-12-30T05:08:38.429Z,0.73
2023-12-30T05:11:08.659Z,3.20
2023-12-30T05:13:38.575Z,1.10
2023-12-30T05:16:08.992Z,0.68
2023-12-30T05:18:39.151Z,5.20
2023-12-30T05:21:14.929Z,1.52
2023-12-30T05:23:47.709Z,0.73
2023-12-30T05:26:17.538Z,4.47
2023-12-30T05:28:47.301Z,1.95
2023-12-30T05:31:14.780Z,0.90
2023-12-30T05:33:44.761Z,0.75
2023-12-30T05:36:14.674Z,3.58
2023-12-30T05:38:47.399Z,0.80
2023-12-30T05:41:17.410Z,1.00
2023-12-30T05:43:47.399Z,0.75
2023-12-30T05:46:20.625Z,0.52
2023-12-30T05:48:50.897Z,0.65
2023-12-30T05:51:23.188Z,1.65
2023-12-30T05:53:57.167Z,2.42
2023-12-30T05:56:28.159Z,0.65
2023-12-30T05:58:58.135Z,0.85
2023-12-30T06:01:28.093Z,4.45
2023-12-30T06:03:58.342Z,0.85
2023-12-30T06:06:29.760Z,1.70
2023-12-30T06:09:03.299Z,0.63
2023-12-30T06:11:33.467Z,2.03
2023-12-30T06:14:03.688Z,2.53
2023-12-30T06:16:33.549Z,3.22
2023-12-30T06:19:03.645Z,1.73
2023-12-30T06:21:33.564Z,0.60
2023-12-30T06:24:05.959Z,1.52
2023-12-30T06:26:39.734Z,1.75
2023-12-30T06:29:11.547Z,2.60
2023-12-30T06:31:43.489Z,1.17
2023-12-30T06:34:13.567Z,1.27
2023-12-30T06:36:46.602Z,0.85
2023-12-30T06:39:20.580Z,2.08
2023-12-30T06:41:50.348Z,9.52
2023-12-30T06:44:20.430Z,0.90
2023-12-30T06:46:50.565Z,1.13
2023-12-30T06:49:20.678Z,1.50
2023-12-30T06:51:51.133Z,5.25
2023-12-30T07:00:36.800Z,0.95
2023-12-30T07:03:07.468Z,2.85
2023-12-30T07:05:38.965Z,2.20
2023-12-30T07:08:09.456Z,2.72
2023-12-30T07:10:39.403Z,1.65
2023-12-30T07:13:09.438Z,1.85
2023-12-30T07:15:41.896Z,4.68
2023-12-30T07:18:12.216Z,4.95
2023-12-30T07:20:42.032Z,4.40
2023-12-30T07:23:11.847Z,7.05
2023-12-30T07:28:48.195Z,6.43
2023-12-30T07:31:20.935Z,3.55
2023-12-30T07:33:50.931Z,4.60
2023-12-30T07:36:22.053Z,4.63
2023-12-30T07:38:51.787Z,4.63
2023-12-30T07:41:21.992Z,5.53
2023-12-30T07:43:52.546Z,2.17
2023-12-30T07:46:27.078Z,4.45
2023-12-30T07:48:57.174Z,5.55
2023-12-30T07:51:27.786Z,1.90
2023-12-30T07:53:57.571Z,13.23
2023-12-30T07:56:28.199Z,5.57
2023-12-30T07:58:58.544Z,7.88
2023-12-30T08:01:31.213Z,5.72
2023-12-30T08:04:01.998Z,8.65
2023-12-30T08:06:32.818Z,6.05
2023-12-30T08:09:02.657Z,4.53
2023-12-30T08:11:39.584Z,4.38
2023-12-30T08:14:15.341Z,4.68
2023-12-30T08:16:47.841Z,4.57
2023-12-30T08:19:17.920Z,3.17
2023-12-30T08:21:48.163Z,8.02
2023-12-30T08:24:20.711Z,5.95
2023-12-30T08:26:50.625Z,8.18
2023-12-30T08:29:20.752Z,6.03
2023-12-30T08:31:53.149Z,5.15
2023-12-30T08:34:23.618Z,3.20
2023-12-30T08:36:53.812Z,4.78
2023-12-30T08:39:23.720Z,4.32
2023-12-30T08:41:53.768Z,5.20
2023-12-30T08:44:23.595Z,4.85
2023-12-30T08:46:56.112Z,9.00
2023-12-30T08:49:25.986Z,5.15
2023-12-30T08:51:56.151Z,3.20
2023-12-30T08:54:25.952Z,5.45
2023-12-30T08:56:56.411Z,10.75
2023-12-30T08:59:27.266Z,3.13
2023-12-30T09:01:59.717Z,3.58
2023-12-30T09:04:29.622Z,7.93
2023-12-30T09:06:59.794Z,5.55
2023-12-30T09:09:29.657Z,8.05
2023-12-30T09:11:59.464Z,3.63
2023-12-30T09:14:29.245Z,10.65
2023-12-30T09:17:01.697Z,6.38
2023-12-30T09:19:32.053Z,4.90
2023-12-30T09:22:02.802Z,13.68
2023-12-30T09:24:32.753Z,6.95
2023-12-30T09:27:03.531Z,5.47
2023-12-30T09:29:33.388Z,4.32
2023-12-30T09:32:06.855Z,5.13
2023-12-30T09:34:41.928Z,5.10
2023-12-30T09:37:16.567Z,4.22
2023-12-30T09:39:46.579Z,7.13
2023-12-30T09:42:16.822Z,5.80
2023-12-30T09:44:46.966Z,4.05
2023-12-30T09:47:20.005Z,8.98
2023-12-30T09:52:19.773Z,5.07
2023-12-30T09:54:50.048Z,8.18
2023-12-30T09:57:19.987Z,8.35
2023-12-30T09:59:51.165Z,7.85
2023-12-30T10:02:23.517Z,5.65
2023-12-30T10:04:53.390Z,3.67
2023-12-30T10:07:23.229Z,6.10
2023-12-30T10:09:54.101Z,3.28
2023-12-30T10:12:24.152Z,3.75
2023-12-30T10:14:53.961Z,6.85
2023-12-30T10:17:26.317Z,6.47
2023-12-30T10:19:56.234Z,4.78
2023-12-30T10:22:27.443Z,2.92
2023-12-30T10:24:57.361Z,1.73
2023-12-30T10:27:27.247Z,4.00
2023-12-30T10:30:00.670Z,7.95
2023-12-30T10:32:34.090Z,3.17
2023-12-30T10:35:04.093Z,3.95
2023-12-30T10:37:33.901Z,9.40
2023-12-30T10:40:04.982Z,9.15
2023-12-30T10:42:34.847Z,3.88
2023-12-30T10:45:04.782Z,3.30
2023-12-30T10:47:41.468Z,4.25
2023-12-30T10:50:13.265Z,7.88
2023-12-30T10:52:47.654Z,2.45
2023-12-30T10:55:19.384Z,2.58
2023-12-30T10:57:52.162Z,4.03
2023-12-30T11:00:23.587Z,7.65
2023-12-30T11:02:56.096Z,6.30
2023-12-30T11:05:28.405Z,4.13
2023-12-30T11:07:58.537Z,5.17
2023-12-30T11:10:29.797Z,9.45
2023-12-30T11:13:01.298Z,4.90
2023-12-30T11:15:32.345Z,4.78
2023-12-30T11:18:05.970Z,5.78
2023-12-30T11:20:37.891Z,5.70
2023-12-30T11:23:08.021Z,3.75
2023-12-30T11:25:39.408Z,7.25
2023-12-30T11:28:15.840Z,5.15
2023-12-30T11:30:53.217Z,9.23
2023-12-30T11:33:26.463Z,13.63
2023-12-30T11:38:26.282Z,9.13
2023-12-30T11:40:57.074Z,7.80
2023-12-30T11:43:27.535Z,5.75
2023-12-30T11:45:57.576Z,9.20
2023-12-30T11:48:30.063Z,5.13
2023-12-30T11:51:00.021Z,5.05
2023-12-30T11:53:29.852Z,8.25
2023-12-30T11:56:00.506Z,8.63
2023-12-30T11:58:30.243Z,9.68
2023-12-30T12:01:00.530Z,6.32
2023-12-30T12:03:33.049Z,3.63
2023-12-30T12:06:03.354Z,3.70
2023-12-30T12:08:33.191Z,6.13
2023-12-30T12:11:03.110Z,5.57
2023-12-30T12:13:33.407Z,6.28
2023-12-30T12:16:05.625Z,11.23
2023-12-30T12:18:38.199Z,4.18
2023-12-30T12:21:15.206Z,12.05
2023-12-30T12:23:43.310Z,7.95
2023-12-30T12:26:13.556Z,5.93
2023-12-30T12:28:43.324Z,12.88
2023-12-30T12:31:16.984Z,6.28
2023-12-30T12:33:49.813Z,10.00
2023-12-30T12:36:20.765Z,6.82
2023-12-30T12:38:51.938Z,8.07
2023-12-30T12:41:21.773Z,5.70
2023-12-30T12:43:51.585Z,7.07
2023-12-30T12:46:21.430Z,5.53
2023-12-30T12:48:53.937Z,5.25
2023-12-30T12:51:24.287Z,8.15
2023-12-30T12:53:54.051Z,7.55
2023-12-30T12:56:24.066Z,4.00
2023-12-30T12:58:54.230Z,7.53
2023-12-30T13:01:24.122Z,16.73
2023-12-30T13:04:00.108Z,5.13
2023-12-30T13:06:30.277Z,7.93
2023-12-30T13:09:01.056Z,4.93
2023-12-30T13:11:33.502Z,11.23
2023-12-30T13:14:10.445Z,4.40
2023-12-30T13:16:40.236Z,5.68
2023-12-30T13:19:13.365Z,4.38
2023-12-30T13:21:43.661Z,8.20
2023-12-30T13:24:13.824Z,6.60
2023-12-30T13:26:45.026Z,13.30
2023-12-30T13:29:16.083Z,9.30
2023-12-30T13:31:49.086Z,5.80
2023-12-30T13:34:21.824Z,3.80
2023-12-30T13:36:58.135Z,7.10
2023-12-30T13:39:28.361Z,5.63
2023-12-30T13:41:59.179Z,3.85
2023-12-30T13:44:30.315Z,6.20
2023-12-30T13:47:22.906Z,5.63
2023-12-30T13:50:10.839Z,8.77
2023-12-30T13:52:41.165Z,7.18
2023-12-30T13:55:14.241Z,5.90
2023-12-30T13:57:44.567Z,13.38
2023-12-30T14:00:15.701Z,15.52
2023-12-30T14:02:45.642Z,6.57
2023-12-30T14:05:28.059Z,7.70
2023-12-30T14:08:06.050Z,13.23
2023-12-30T14:10:36.457Z,7.28
2023-12-30T14:13:07.370Z,8.52
2023-12-30T14:15:37.353Z,3.85
2023-12-30T14:18:07.814Z,5.95
2023-12-30T14:20:41.217Z,11.48
2023-12-30T14:23:11.106Z,11.82
2023-12-30T14:25:41.755Z,9.13
2023-12-30T14:28:11.723Z,8.10
2023-12-30T14:30:41.634Z,7.78
2023-12-30T14:33:11.755Z,5.65
2023-12-30T14:35:44.708Z,6.30
2023-12-30T14:38:14.522Z,12.23
2023-12-30T14:40:44.390Z,8.90
2023-12-30T14:43:14.728Z,8.65
2023-12-30T14:45:44.599Z,8.77
2023-12-30T14:48:14.582Z,5.43
2023-12-30T14:50:47.177Z,15.38
2023-12-30T14:53:16.908Z,16.30
2023-12-30T14:55:46.858Z,6.47
2023-12-30T14:58:17.285Z,10.43
2023-12-30T15:00:47.225Z,9.80
2023-12-30T15:03:17.087Z,11.23
2023-12-30T15:05:49.990Z,12.65
2023-12-30T15:08:19.828Z,8.10
2023-12-30T15:10:49.770Z,5.30
2023-12-30T15:13:19.599Z,17.85
2023-12-30T15:15:49.788Z,22.00
2023-12-30T15:18:21.327Z,23.60
2023-12-30T15:20:56.849Z,19.25
2023-12-30T15:23:27.196Z,10.65
2023-12-30T15:25:57.011Z,13.35
2023-12-30T15:28:27.618Z,22.30
2023-12-30T15:30:57.554Z,15.93
2023-12-30T15:33:28.276Z,16.60
2023-12-30T15:36:04.202Z,9.77
2023-12-30T15:38:34.465Z,13.65
2023-12-30T15:44:08.331Z,13.50
2023-12-30T15:46:38.584Z,18.83
2023-12-30T15:49:11.220Z,10.65
2023-12-30T15:51:46.833Z,9.13
2023-12-30T15:54:16.738Z,12.80
2023-12-30T15:56:47.355Z,11.77
2023-12-30T15:59:17.188Z,14.48
2023-12-30T16:01:47.181Z,10.00
2023-12-30T16:04:17.395Z,6.70
2023-12-30T16:06:49.971Z,13.40
2023-12-30T16:09:22.815Z,17.73
2023-12-30T16:11:52.682Z,11.77
2023-12-30T16:14:23.833Z,7.55
2023-12-30T16:16:53.622Z,15.43
2023-12-30T16:19:24.164Z,12.32
2023-12-30T16:21:56.724Z,18.58
2023-12-30T16:24:26.519Z,18.60
2023-12-30T16:26:54.028Z,11.95
2023-12-30T16:29:25.603Z,14.93
2023-12-30T16:31:58.204Z,12.68
2023-12-30T16:34:28.361Z,11.70
2023-12-30T16:37:00.784Z,13.98
2023-12-30T16:39:30.579Z,15.90
2023-12-30T16:42:00.512Z,10.80
2023-12-30T16:44:30.592Z,21.45
2023-12-30T16:47:00.471Z,20.20
2023-12-30T16:49:30.696Z,14.15
2023-12-30T16:52:03.682Z,17.38
2023-12-30T16:57:03.158Z,16.25
2023-12-30T16:59:33.575Z,11.40
2023-12-30T17:02:03.794Z,10.93
2023-12-30T17:04:33.679Z,9.18
2023-12-30T17:07:06.748Z,17.23
2023-12-30T17:12:06.585Z,12.48
2023-12-30T17:14:36.813Z,12.65
2023-12-30T17:17:06.717Z,9.23
2023-12-30T17:19:36.479Z,13.25
2023-12-30T17:22:09.306Z,10.13
2023-12-30T17:24:39.090Z,10.77
2023-12-30T17:27:08.944Z,9.43
2023-12-30T17:29:38.996Z,22.25
2023-12-30T17:32:10.822Z,15.98
2023-12-30T17:34:41.081Z,15.05
2023-12-30T17:37:13.563Z,15.95
2023-12-30T17:39:43.830Z,17.10
2023-12-30T17:42:13.612Z,13.40
2023-12-30T17:44:43.473Z,11.75
2023-12-30T17:47:13.284Z,15.20
2023-12-30T17:49:43.096Z,10.05
2023-12-30T17:52:15.498Z,18.00
2023-12-30T17:54:45.696Z,17.00
2023-12-30T17:57:15.918Z,10.52
2023-12-30T17:59:45.860Z,16.05
2023-12-30T18:02:19.855Z,8.32
2023-12-30T18:04:49.897Z,14.77
2023-12-30T18:07:22.451Z,12.10
2023-12-30T18:09:52.303Z,14.75
2023-12-30T18:12:22.136Z,10.73
2023-12-30T18:14:51.930Z,9.90
2023-12-30T18:17:21.697Z,14.68
2023-12-30T18:19:52.553Z,11.35
2023-12-30T18:22:25.015Z,11.75
2023-12-30T18:24:54.891Z,12.05
2023-12-30T18:27:24.847Z,13.20
2023-12-30T18:29:54.652Z,15.70
2023-12-30T18:32:24.492Z,12.75
2023-12-30T18:34:54.851Z,9.75
2023-12-30T18:37:29.695Z,15.85
2023-12-30T18:39:59.670Z,14.05
2023-12-30T18:42:29.483Z,9.65
2023-12-30T18:44:59.699Z,11.57
2023-12-30T18:47:29.721Z,11.15
2023-12-30T18:49:59.590Z,11.20
2023-12-30T18:52:35.430Z,20.58
2023-12-30T18:55:06.512Z,12.55
2023-12-30T18:57:36.600Z,10.85
2023-12-30T19:00:06.893Z,14.80
2023-12-30T19:02:37.031Z,16.98
2023-12-30T19:05:07.169Z,18.20
2023-12-30T19:07:39.633Z,15.45
2023-12-30T19:10:12.981Z,13.55
2023-12-30T19:12:42.792Z,12.10
2023-12-30T19:15:13.181Z,23.00
2023-12-30T19:17:43.068Z,14.77
2023-12-30T19:20:13.694Z,14.88
2023-12-30T19:22:46.474Z,12.93
2023-12-30T19:25:18.082Z,10.98
2023-12-30T19:27:48.131Z,11.77
2023-12-30T19:30:17.991Z,15.45
2023-12-30T19:32:48.186Z,15.88
2023-12-30T19:35:19.537Z,14.77
2023-12-30T19:37:52.390Z,15.32
2023-12-30T19:40:19.724Z,19.30
2023-12-30T19:42:49.667Z,10.93
2023-12-30T19:45:19.642Z,13.93
2023-12-30T19:47:49.423Z,15.98
2023-12-30T19:50:19.693Z,17.50
2023-12-30T19:52:52.264Z,17.13
2023-12-30T19:55:22.165Z,11.95
2023-12-30T19:57:51.932Z,15.07
2023-12-30T20:00:22.887Z,8.93
2023-12-30T20:02:52.861Z,8.68
2023-12-30T20:05:22.700Z,8.18
2023-12-30T20:07:55.207Z,12.23
2023-12-30T20:10:25.132Z,20.20
2023-12-30T20:12:57.227Z,14.57
2023-12-30T20:15:27.671Z,12.37
2023-12-30T20:17:59.363Z,13.20
2023-12-30T20:20:29.604Z,13.60
2023-12-30T20:23:02.661Z,13.23
2023-12-30T20:25:33.117Z,14.00
2023-12-30T20:28:02.975Z,10.05
2023-12-30T20:30:32.981Z,9.73
2023-12-30T20:33:03.211Z,4.47
2023-12-30T20:35:33.412Z,8.88
2023-12-30T20:38:05.832Z,13.98
2023-12-30T20:40:35.848Z,11.45
2023-12-30T20:43:06.304Z,11.02
2023-12-30T20:45:36.484Z,11.00
2023-12-30T20:48:06.952Z,9.85
2023-12-30T20:50:38.453Z,9.73
2023-12-30T20:53:12.014Z,12.68
2023-12-30T20:55:42.309Z,16.70
2023-12-30T20:58:12.154Z,10.48
2023-12-30T21:00:42.543Z,11.02
2023-12-30T21:03:12.727Z,10.90
2023-12-30T21:05:42.727Z,13.88
2023-12-30T21:08:15.159Z,9.27
2023-12-30T21:10:45.252Z,9.48
2023-12-30T21:13:15.453Z,8.15
2023-12-30T21:15:45.504Z,9.77
2023-12-30T21:18:15.317Z,9.68
2023-12-30T21:20:45.233Z,16.30
2023-12-30T21:23:18.027Z,8.80
2023-12-30T21:25:50.463Z,13.43
2023-12-30T21:28:23.098Z,18.33
2023-12-30T21:30:53.043Z,10.40
2023-12-30T21:33:22.953Z,10.55
2023-12-30T21:35:52.960Z,11.98
2023-12-30T21:38:25.571Z,10.20
2023-12-30T21:40:55.353Z,15.48
2023-12-30T21:43:25.151Z,13.98
2023-12-30T21:45:55.453Z,8.20
2023-12-30T21:48:25.221Z,8.73
2023-12-30T21:50:57.213Z,9.75
2023-12-30T21:53:29.644Z,10.20
2023-12-30T21:55:59.712Z,7.22
2023-12-30T21:58:29.651Z,10.38
2023-12-30T22:00:59.430Z,7.45
2023-12-30T22:03:29.547Z,11.38
2023-12-30T22:05:59.392Z,9.98
2023-12-30T22:08:32.052Z,7.55
2023-12-30T22:11:01.917Z,14.30
2023-12-30T22:13:31.693Z,8.85
2023-12-30T22:16:02.088Z,11.75
2023-12-30T22:18:32.882Z,8.27
2023-12-30T22:21:02.978Z,8.55
2023-12-30T22:23:35.383Z,10.07
2023-12-30T22:26:05.212Z,8.65
2023-12-30T22:28:35.079Z,15.00
2023-12-30T22:31:05.064Z,8.85
2023-12-30T22:33:35.132Z,8.23
2023-12-30T22:36:05.156Z,15.18
2023-12-30T22:38:37.516Z,6.22
2023-12-30T22:41:07.562Z,7.65
2023-12-30T22:43:37.474Z,18.55
2023-12-30T22:46:07.445Z,9.82
2023-12-30T22:48:37.551Z,9.77
2023-12-30T22:51:07.560Z,9.45
2023-12-30T22:53:41.125Z,8.13
2023-12-30T22:56:11.583Z,9.77
2023-12-30T22:58:41.868Z,10.30
2023-12-30T23:01:11.923Z,10.57
2023-12-30T23:03:42.086Z,11.20
2023-12-30T23:06:12.160Z,10.57
2023-12-30T23:08:45.133Z,10.93
2023-12-30T23:11:14.959Z,6.07
2023-12-30T23:13:44.834Z,8.60
2023-12-30T23:16:15.194Z,9.07
2023-12-30T23:18:45.412Z,11.55
2023-12-30T23:21:15.335Z,7.88
2023-12-30T23:23:47.757Z,14.27
2023-12-30T23:26:17.752Z,8.75
2023-12-30T23:28:47.609Z,11.00
2023-12-30T23:31:17.583Z,6.70
2023-12-30T23:33:47.419Z,9.70
2023-12-30T23:36:17.663Z,6.63
2023-12-30T23:38:50.299Z,9.98
2023-12-30T23:41:20.687Z,7.38
2023-12-30T23:43:50.494Z,14.23
2023-12-30T23:46:20.313Z,11.13
2023-12-30T23:48:50.156Z,7.95
2023-12-30T23:51:20.665Z,17.10
2023-12-30T23:53:53.048Z,9.70
2023-12-30T23:56:23.118Z,9.57
2023-12-30T23:58:52.872Z,15.10
